Time;durP1;ratioP1;P1;durP2;ratioP2;P2;SDS_P1;SDS_P2;PMS_P1;PMS_P2;Temp;Humidity;BMP_temperature;BMP_pressure;BME280_temperature;BME280_humidity;BME280_pressure;Samples;Min_cycle;Max_cycle;Signal;HPM_P1;HPM_P2
2022/09/24 00:00:51;;;;;;;17.90;14.10;;;15.10;85.20;;;;;;5038501;28;20151;-67
2022/09/24 00:03:18;;;;;;;16.13;13.23;;;15.20;85.10;;;;;;5041853;28;20017;-66
2022/09/24 00:05:45;;;;;;;18.52;14.45;;;15.20;85.00;;;;;;5043974;28;20108;-66
2022/09/24 00:08:11;;;;;;;14.80;12.35;;;15.20;85.00;;;;;;5037488;28;20021;-67
2022/09/24 00:10:41;;;;;;;13.38;10.85;;;15.20;84.80;;;;;;5041863;28;20392;-67
2022/09/24 00:13:12;;;;;;;16.38;13.32;;;15.30;84.70;;;;;;5036780;28;20556;-66
2022/09/24 00:15:41;;;;;;;13.98;11.23;;;15.20;84.70;;;;;;5040283;28;21492;-66
2022/09/24 00:18:07;;;;;;;12.90;11.07;;;15.20;84.70;;;;;;5040327;28;20484;-66
2022/09/24 00:20:33;;;;;;;12.13;10.35;;;15.20;84.60;;;;;;5040305;28;20029;-66
2022/09/24 00:23:00;;;;;;;16.65;13.65;;;15.30;84.40;;;;;;5036096;28;20013;-65
2022/09/24 00:28:12;;;;;;;17.75;13.77;;;15.30;84.60;;;;;;5042436;28;20105;-67
2022/09/24 00:30:41;;;;;;;14.40;12.32;;;15.20;84.50;;;;;;5038575;28;20028;-67
2022/09/24 00:33:08;;;;;;;14.65;11.38;;;15.20;84.60;;;;;;5036939;28;20043;-67
2022/09/24 00:35:35;;;;;;;13.50;11.20;;;15.30;84.50;;;;;;5039973;28;20470;-67
2022/09/24 00:38:01;;;;;;;16.15;13.43;;;15.30;84.30;;;;;;5040401;28;20106;-66
2022/09/24 00:40:36;;;;;;;14.45;11.90;;;15.30;84.20;;;;;;5039393;28;20056;-66
2022/09/24 00:43:19;;;;;;;14.45;12.13;;;15.30;84.40;;;;;;5037912;28;20029;-66
2022/09/24 00:45:45;;;;;;;14.77;11.38;;;15.30;84.40;;;;;;5034531;28;20017;-67
2022/09/24 00:48:11;;;;;;;12.93;11.05;;;15.30;84.40;;;;;;5038831;28;20507;-65
2022/09/24 00:50:36;;;;;;;15.63;12.63;;;15.30;84.30;;;;;;5043373;28;20028;-66
2022/09/24 00:53:06;;;;;;;13.50;10.75;;;15.30;84.40;;;;;;5037780;28;20044;-65
2022/09/24 00:55:33;;;;;;;12.23;10.30;;;15.30;84.30;;;;;;5036055;28;20040;-65
2022/09/24 00:58:02;;;;;;;18.75;15.38;;;15.30;84.20;;;;;;5038419;28;20109;-65
2022/09/24 01:00:29;;;;;;;21.63;17.60;;;15.20;84.30;;;;;;5036556;28;20664;-67
2022/09/24 01:03:09;;;;;;;18.20;14.93;;;15.20;84.70;;;;;;5040852;28;20107;-67
2022/09/24 01:05:36;;;;;;;16.83;14.15;;;15.10;85.10;;;;;;5040605;28;20528;-66
2022/09/24 01:08:02;;;;;;;17.58;14.30;;;15.10;85.00;;;;;;5041656;28;20380;-67
2022/09/24 01:11:02;;;;;;;18.85;15.18;;;15.10;84.90;;;;;;5042567;28;20451;-66
2022/09/24 01:13:59;;;;;;;15.98;12.95;;;15.10;85.60;;;;;;5044063;28;20025;-67
2022/09/24 01:16:29;;;;;;;18.10;14.52;;;15.10;85.00;;;;;;5037527;28;20037;-67
2022/09/24 01:19:19;;;;;;;16.50;13.35;;;15.10;84.90;;;;;;5041634;28;20021;-67
2022/09/24 01:21:51;;;;;;;17.60;14.70;;;15.10;85.00;;;;;;5039643;28;20526;-66
2022/09/24 01:24:51;;;;;;;25.15;19.55;;;15.10;85.00;;;;;;5038250;28;20480;-65
2022/09/24 01:27:40;;;;;;;19.75;16.27;;;15.00;85.10;;;;;;5043580;28;20029;-64
2022/09/24 01:30:07;;;;;;;19.27;15.77;;;15.00;85.30;;;;;;5042189;28;20036;-64
2022/09/24 01:32:51;;;;;;;15.93;13.70;;;15.00;85.30;;;;;;5041617;28;20037;-64
2022/09/24 01:35:28;;;;;;;16.50;12.98;;;15.00;85.30;;;;;;5045128;28;20129;-65
2022/09/24 01:38:03;;;;;;;15.40;12.30;;;15.10;85.20;;;;;;5037511;28;20044;-65
2022/09/24 01:40:30;;;;;;;17.13;13.50;;;15.10;85.20;;;;;;5038731;28;20070;-64
2022/09/24 01:42:57;;;;;;;25.38;20.80;;;15.10;85.10;;;;;;5041352;28;20024;-64
2022/09/24 01:45:26;;;;;;;19.70;15.95;;;15.10;85.10;;;;;;5042188;28;20024;-64
2022/09/24 01:47:51;;;;;;;18.40;14.30;;;15.00;85.20;;;;;;5038325;28;20022;-63
2022/09/24 01:50:18;;;;;;;18.75;15.63;;;15.00;85.20;;;;;;5043111;28;20036;-63
2022/09/24 01:52:59;;;;;;;17.98;14.20;;;15.00;85.30;;;;;;5039260;28;20501;-64
2022/09/24 01:55:28;;;;;;;23.95;18.98;;;15.00;85.30;;;;;;5045248;28;20033;-65
2022/09/24 01:58:09;;;;;;;17.15;13.90;;;15.00;85.40;;;;;;5044851;28;20618;-65
2022/09/24 02:00:39;;;;;;;19.33;15.07;;;15.00;85.50;;;;;;5037627;28;20507;-65
2022/09/24 02:03:12;;;;;;;25.05;18.80;;;15.00;85.50;;;;;;5042667;28;20048;-65
2022/09/24 02:05:49;;;;;;;16.98;13.93;;;14.90;85.60;;;;;;5043903;28;20021;-65
2022/09/24 02:08:28;;;;;;;19.25;15.73;;;15.00;85.60;;;;;;5035399;28;20104;-65
2022/09/24 02:11:21;;;;;;;21.67;17.20;;;15.00;85.50;;;;;;5046127;28;20383;-64
2022/09/24 02:13:46;;;;;;;;;;;14.90;85.50;;;;;;5040127;28;20029;-64
2022/09/24 02:16:15;;;;;;;19.17;15.88;;;14.90;85.30;;;;;;5043221;28;19920;-64
2022/09/24 02:18:45;;;;;;;21.25;16.60;;;14.90;85.40;;;;;;5038905;28;20032;-64
2022/09/24 02:21:15;;;;;;;19.33;15.30;;;14.90;85.60;;;;;;5045668;28;20021;-65
2022/09/24 02:23:46;;;;;;;15.73;12.77;;;14.90;85.70;;;;;;5041022;28;20112;-64
2022/09/24 02:26:12;;;;;;;16.40;13.02;;;14.90;85.60;;;;;;5038039;28;20032;-65
2022/09/24 02:28:37;;;;;;;18.80;15.25;;;14.90;85.50;;;;;;5041064;28;20017;-65
2022/09/24 02:31:08;;;;;;;20.58;17.05;;;14.90;85.60;;;;;;5040849;28;20029;-64
2022/09/24 02:36:23;;;;;;;16.45;13.13;;;14.80;85.60;;;;;;5042661;28;20040;-65
2022/09/24 02:38:50;;;;;;;17.63;13.50;;;14.80;85.50;;;;;;5041472;28;20029;-65
2022/09/24 02:41:16;;;;;;;15.43;12.50;;;14.80;85.60;;;;;;5037624;28;20032;-65
2022/09/24 02:43:43;;;;;;;15.95;12.93;;;14.80;85.80;;;;;;5040826;28;20025;-67
2022/09/24 02:46:09;;;;;;;16.30;12.93;;;14.90;85.40;;;;;;5038653;28;20040;-66
2022/09/24 02:48:36;;;;;;;17.08;12.95;;;14.90;85.40;;;;;;5034191;28;20017;-66
2022/09/24 02:51:04;;;;;;;14.75;11.93;;;14.90;85.50;;;;;;5037884;28;20017;-66
2022/09/24 02:53:31;;;;;;;20.23;16.65;;;14.90;85.30;;;;;;5039183;28;20040;-66
2022/09/24 02:55:59;;;;;;;16.58;12.85;;;14.80;85.50;;;;;;5039886;28;20021;-65
2022/09/24 02:58:26;;;;;;;16.75;12.95;;;14.80;85.60;;;;;;5038102;28;20108;-65
2022/09/24 03:00:53;;;;;;;16.90;13.27;;;14.80;85.50;;;;;;5038081;28;20048;-66
2022/09/24 03:03:19;;;;;;;17.05;14.05;;;14.80;85.50;;;;;;5041725;28;20033;-66
2022/09/24 03:05:45;;;;;;;18.67;14.68;;;14.80;85.60;;;;;;5043647;28;20037;-65
2022/09/24 03:08:11;;;;;;;18.17;14.82;;;14.80;85.70;;;;;;5042696;28;20017;-65
2022/09/24 03:10:38;;;;;;;16.52;12.70;;;14.80;85.80;;;;;;5038742;28;20035;-65
2022/09/24 03:13:03;;;;;;;20.13;16.02;;;14.70;85.70;;;;;;5041437;28;20033;-65
2022/09/24 03:15:29;;;;;;;16.48;13.95;;;14.70;85.80;;;;;;5041162;28;20032;-65
2022/09/24 03:17:54;;;;;;;20.70;17.05;;;14.70;85.90;;;;;;5039568;28;20079;-66
2022/09/24 03:20:20;;;;;;;19.05;16.30;;;14.60;86.00;;;;;;5043663;28;20070;-66
2022/09/24 03:22:50;;;;;;;18.20;14.77;;;14.60;86.30;;;;;;5044057;28;20480;-65
2022/09/24 03:25:16;;;;;;;17.00;14.13;;;14.60;86.40;;;;;;5043644;28;20390;-65
2022/09/24 03:27:41;;;;;;;16.98;13.07;;;14.50;86.60;;;;;;5041016;28;20092;-65
2022/09/24 03:32:51;;;;;;;16.83;13.68;;;14.50;86.40;;;;;;5040915;28;20116;-65
2022/09/24 03:35:18;;;;;;;13.65;10.75;;;14.50;86.50;;;;;;5040871;28;20460;-64
2022/09/24 03:37:45;;;;;;;12.32;9.75;;;14.60;86.40;;;;;;5043011;28;20051;-65
2022/09/24 03:40:11;;;;;;;12.85;10.05;;;14.60;86.20;;;;;;5038004;28;20029;-65
2022/09/24 03:42:36;;;;;;;13.82;11.10;;;14.60;86.10;;;;;;5043614;28;20048;-65
2022/09/24 03:45:02;;;;;;;13.65;10.93;;;14.60;86.00;;;;;;5042466;28;20514;-65
2022/09/24 03:47:29;;;;;;;12.27;10.00;;;14.70;86.00;;;;;;5041267;28;20042;-65
2022/09/24 03:49:55;;;;;;;14.40;11.90;;;14.70;86.00;;;;;;5043475;28;20487;-65
2022/09/24 03:52:20;;;;;;;11.77;9.38;;;14.70;85.80;;;;;;5040976;28;20095;-64
2022/09/24 03:54:46;;;;;;;12.27;9.90;;;14.70;85.80;;;;;;5039426;28;20475;-64
2022/09/24 03:57:13;;;;;;;14.07;10.75;;;14.70;85.80;;;;;;5038287;28;20037;-65
2022/09/24 03:59:40;;;;;;;13.55;11.50;;;14.60;85.80;;;;;;5041585;28;20029;-65
2022/09/24 04:02:06;;;;;;;12.10;10.10;;;14.60;85.90;;;;;;5039231;28;20021;-65
2022/09/24 04:04:32;;;;;;;12.60;9.65;;;14.60;85.90;;;;;;5039822;28;20735;-65
2022/09/24 04:06:58;;;;;;;11.27;9.15;;;14.70;85.80;;;;;;5038312;28;20674;-65
2022/09/24 04:09:23;;;;;;;11.20;8.98;;;14.70;85.80;;;;;;5041463;28;20090;-65
2022/09/24 04:11:51;;;;;;;11.63;9.77;;;14.70;85.60;;;;;;5040624;28;20048;-65
2022/09/24 04:14:17;;;;;;;11.43;9.40;;;14.70;85.50;;;;;;5034957;28;20029;-65
2022/09/24 04:16:43;;;;;;;11.40;9.73;;;14.70;85.50;;;;;;5039705;28;20036;-65
2022/09/24 04:19:08;;;;;;;12.20;9.27;;;14.80;85.40;;;;;;5038788;28;20110;-65
2022/09/24 04:21:34;;;;;;;14.60;10.65;;;14.80;85.40;;;;;;5038899;28;20037;-64
2022/09/24 04:23:59;;;;;;;15.10;11.52;;;14.70;85.40;;;;;;5043430;28;20024;-64
2022/09/24 04:26:25;;;;;;;12.93;9.90;;;14.70;85.40;;;;;;5040251;28;20039;-64
2022/09/24 04:28:50;;;;;;;10.73;9.00;;;14.70;85.60;;;;;;5038126;28;20208;-65
2022/09/24 04:31:16;;;;;;;10.02;8.50;;;14.70;85.50;;;;;;5042346;28;20549;-64
2022/09/24 04:33:41;;;;;;;12.10;8.82;;;14.70;85.40;;;;;;5043054;28;20017;-64
2022/09/24 04:36:07;;;;;;;11.77;9.32;;;14.80;85.30;;;;;;5037114;28;20506;-65
2022/09/24 04:38:32;;;;;;;11.27;8.60;;;14.80;85.30;;;;;;5035749;28;20435;-65
2022/09/24 04:41:06;;;;;;;9.52;7.93;;;14.80;85.20;;;;;;5041031;28;20021;-65
2022/09/24 04:43:32;;;;;;;10.32;8.48;;;14.90;85.10;;;;;;5035703;28;20615;-65
2022/09/24 04:45:58;;;;;;;10.70;8.23;;;14.80;85.00;;;;;;5039739;28;20025;-65
2022/09/24 04:48:24;;;;;;;10.38;8.32;;;14.90;85.00;;;;;;5038600;28;20569;-65
2022/09/24 04:50:50;;;;;;;10.32;8.65;;;14.90;85.00;;;;;;5037467;28;20051;-65
2022/09/24 04:53:16;;;;;;;13.90;11.68;;;14.90;85.00;;;;;;5039277;28;20057;-65
2022/09/24 04:55:41;;;;;;;12.32;10.25;;;14.90;84.90;;;;;;5038368;28;20017;-66
2022/09/24 04:58:08;;;;;;;12.60;10.25;;;14.80;85.00;;;;;;5039650;28;20502;-66
2022/09/24 05:00:33;;;;;;;13.45;11.15;;;14.80;85.00;;;;;;5035970;28;20061;-66
2022/09/24 05:03:03;;;;;;;13.25;10.68;;;14.80;85.10;;;;;;5034744;28;20037;-66
2022/09/24 05:05:31;;;;;;;16.60;13.70;;;14.70;85.20;;;;;;5036152;28;20561;-66
2022/09/24 05:07:57;;;;;;;16.13;12.77;;;14.70;85.30;;;;;;5038740;28;20024;-66
2022/09/24 05:10:24;;;;;;;15.93;13.02;;;14.70;85.50;;;;;;5040375;28;20036;-66
2022/09/24 05:12:50;;;;;;;13.05;10.50;;;14.70;85.50;;;;;;5039546;28;20040;-66
2022/09/24 05:15:18;;;;;;;15.65;12.23;;;14.60;85.60;;;;;;5039770;28;20072;-66
2022/09/24 05:17:43;;;;;;;15.80;12.38;;;14.70;85.60;;;;;;5039847;28;20404;-65
2022/09/24 05:20:10;;;;;;;12.88;10.65;;;14.60;85.70;;;;;;5036544;28;20021;-65
2022/09/24 05:22:39;;;;;;;11.95;9.95;;;14.60;85.70;;;;;;5037489;28;20379;-66
2022/09/24 05:25:05;;;;;;;12.95;10.32;;;14.60;85.70;;;;;;5041469;28;20066;-65
2022/09/24 05:27:31;;;;;;;12.52;10.13;;;14.70;85.70;;;;;;5039633;28;20025;-65
2022/09/24 05:29:56;;;;;;;14.05;10.77;;;14.70;85.60;;;;;;5036528;28;20037;-65
2022/09/24 05:32:22;;;;;;;12.32;10.23;;;14.70;85.80;;;;;;5044286;28;20044;-65
2022/09/24 05:34:49;;;;;;;10.60;9.02;;;14.70;85.70;;;;;;5046669;28;20034;-64
2022/09/24 05:37:15;;;;;;;10.57;8.70;;;14.70;85.70;;;;;;5039571;28;20655;-65
2022/09/24 05:39:41;;;;;;;11.13;8.55;;;14.80;85.50;;;;;;5037486;28;20029;-65
2022/09/24 05:42:14;;;;;;;11.30;9.25;;;14.80;85.40;;;;;;5042186;28;20494;-65
2022/09/24 05:44:42;;;;;;;12.88;10.77;;;14.80;85.30;;;;;;5041555;28;20487;-65
2022/09/24 05:47:08;;;;;;;13.38;10.90;;;14.80;85.20;;;;;;5047327;28;20160;-64
2022/09/24 05:49:34;;;;;;;12.40;10.52;;;14.80;85.30;;;;;;5042053;28;20388;-64
2022/09/24 05:52:00;;;;;;;15.85;13.23;;;14.80;85.20;;;;;;5045652;28;20037;-64
2022/09/24 05:54:26;;;;;;;14.90;12.13;;;14.80;85.30;;;;;;5048275;28;20033;-65
2022/09/24 05:56:52;;;;;;;12.20;9.88;;;14.80;85.40;;;;;;5045260;28;20029;-64
2022/09/24 05:59:17;;;;;;;11.70;9.63;;;14.80;85.40;;;;;;5049011;28;20025;-65
2022/09/24 06:01:43;;;;;;;11.98;9.13;;;14.80;85.40;;;;;;5043695;28;20044;-65
2022/09/24 06:04:10;;;;;;;11.27;8.52;;;14.80;85.20;;;;;;5048406;28;20021;-65
2022/09/24 06:06:36;;;;;;;11.07;9.35;;;14.90;85.20;;;;;;5046514;28;20025;-65
2022/09/24 06:09:02;;;;;;;12.85;9.55;;;14.90;85.10;;;;;;5047940;28;20411;-65
2022/09/24 06:11:33;;;;;;;13.13;10.60;;;14.90;85.10;;;;;;5046923;28;20033;-65
2022/09/24 06:14:00;;;;;;;14.73;12.40;;;14.80;85.00;;;;;;5051279;28;20400;-65
2022/09/24 06:16:26;;;;;;;13.05;11.25;;;14.80;85.70;;;;;;5047803;28;20052;-64
2022/09/24 06:18:51;;;;;;;18.05;12.55;;;14.80;85.20;;;;;;5046351;28;20446;-64
2022/09/24 06:21:17;;;;;;;15.23;12.73;;;14.70;85.30;;;;;;5046163;28;20368;-64
2022/09/24 06:23:44;;;;;;;12.02;10.02;;;14.60;85.60;;;;;;5043873;28;20100;-64
2022/09/24 06:26:12;;;;;;;12.13;10.38;;;14.60;85.60;;;;;;5050279;28;20589;-65
2022/09/24 06:28:38;;;;;;;12.77;10.63;;;14.70;85.60;;;;;;5043027;28;20030;-66
2022/09/24 06:31:03;;;;;;;15.25;11.82;;;14.70;85.60;;;;;;5042308;28;20117;-66
2022/09/24 06:33:29;;;;;;;10.95;8.55;;;14.70;85.60;;;;;;5046487;28;20631;-63
2022/09/24 06:35:59;;;;;;;15.70;12.30;;;14.70;85.60;;;;;;5045130;28;20029;-64
2022/09/24 06:38:25;;;;;;;11.68;9.68;;;14.70;85.60;;;;;;5042058;28;20151;-65
2022/09/24 06:40:51;;;;;;;11.48;9.45;;;14.70;85.80;;;;;;5045581;28;20488;-64
2022/09/24 06:43:17;;;;;;;13.00;9.80;;;14.70;85.60;;;;;;5047789;28;20025;-64
2022/09/24 06:45:42;;;;;;;10.70;8.57;;;14.70;85.50;;;;;;5044126;28;20025;-65
2022/09/24 06:48:11;;;;;;;11.63;9.48;;;14.80;85.50;;;;;;5055374;28;20364;-64
2022/09/24 06:50:39;;;;;;;10.20;7.90;;;14.80;85.40;;;;;;5049194;28;20502;-65
2022/09/24 06:53:06;;;;;;;10.05;8.38;;;14.90;86.00;;;;;;5046820;28;20035;-64
2022/09/24 06:55:35;;;;;;;13.63;11.05;;;14.90;85.30;;;;;;5046409;28;20037;-64
2022/09/24 06:58:04;;;;;;;13.10;10.70;;;14.90;85.10;;;;;;5051419;28;20017;-65
2022/09/24 07:00:30;;;;;;;12.32;11.02;;;14.90;85.10;;;;;;5043999;28;20415;-65
2022/09/24 07:02:55;;;;;;;12.13;8.95;;;14.90;85.20;;;;;;5039464;28;20033;-65
2022/09/24 07:05:21;;;;;;;13.13;10.48;;;14.80;85.30;;;;;;5046252;28;20115;-64
2022/09/24 07:07:46;;;;;;;11.30;9.40;;;14.90;85.20;;;;;;5050673;28;20021;-63
2022/09/24 07:10:13;;;;;;;12.02;9.20;;;14.80;85.20;;;;;;5048533;28;20060;-63
2022/09/24 07:12:40;;;;;;;16.60;14.27;;;14.90;85.20;;;;;;5049903;28;20036;-64
2022/09/24 07:15:07;;;;;;;14.30;11.10;;;14.90;85.30;;;;;;5044462;28;20032;-63
2022/09/24 07:17:32;;;;;;;11.55;9.40;;;14.80;85.50;;;;;;5038064;28;20099;-64
2022/09/24 07:19:58;;;;;;;12.43;9.23;;;14.90;85.50;;;;;;5041871;28;20170;-64
2022/09/24 07:22:24;;;;;;;14.10;10.77;;;14.90;85.40;;;;;;5040937;28;20107;-67
2022/09/24 07:24:49;;;;;;;18.65;14.35;;;14.90;85.30;;;;;;5040885;28;20044;-65
2022/09/24 07:27:15;;;;;;;13.70;11.65;;;14.90;85.40;;;;;;5043464;28;20511;-65
2022/09/24 07:29:41;;;;;;;12.25;9.63;;;14.80;85.60;;;;;;5038908;28;20537;-65
2022/09/24 07:32:07;;;;;;;13.88;11.80;;;14.90;85.70;;;;;;5040668;28;20052;-65
2022/09/24 07:34:32;;;;;;;10.73;9.60;;;14.90;85.60;;;;;;5039626;28;20067;-65
2022/09/24 07:36:59;;;;;;;11.05;9.50;;;14.90;85.70;;;;;;5046226;28;20041;-64
2022/09/24 07:39:26;;;;;;;10.43;8.68;;;14.90;85.60;;;;;;5035619;28;20033;-64
2022/09/24 07:41:51;;;;;;;11.18;8.82;;;15.00;85.50;;;;;;5042885;28;20026;-64
2022/09/24 07:44:19;;;;;;;13.15;10.50;;;15.00;85.30;;;;;;5039841;28;20489;-64
2022/09/24 07:46:54;;;;;;;12.25;10.07;;;15.00;85.30;;;;;;5041843;28;20028;-65
2022/09/24 07:49:20;;;;;;;11.52;9.63;;;15.00;85.40;;;;;;5037184;28;20076;-64
2022/09/24 07:51:46;;;;;;;14.93;13.00;;;15.00;86.00;;;;;;5045727;28;20549;-65
2022/09/24 07:54:12;;;;;;;10.65;9.00;;;15.00;85.40;;;;;;5046727;28;20033;-65
2022/09/24 07:56:38;;;;;;;11.18;9.30;;;15.00;85.50;;;;;;5037361;28;20495;-64
2022/09/24 07:59:05;;;;;;;11.57;9.07;;;15.00;85.50;;;;;;5039153;28;20032;-63
2022/09/24 08:01:32;;;;;;;10.35;8.95;;;15.10;85.50;;;;;;5041272;28;20021;-64
2022/09/24 08:04:00;;;;;;;10.32;9.07;;;15.10;85.30;;;;;;5045563;28;20056;-63
2022/09/24 08:06:26;;;;;;;11.10;8.70;;;15.10;85.30;;;;;;5043242;28;20101;-64
2022/09/24 08:08:52;;;;;;;11.13;9.40;;;15.10;85.30;;;;;;5043491;28;20104;-64
2022/09/24 08:11:19;;;;;;;13.02;9.40;;;15.10;85.30;;;;;;5036281;28;20025;-65
2022/09/24 08:13:45;;;;;;;13.52;10.63;;;15.10;85.30;;;;;;5038955;28;20021;-64
2022/09/24 08:16:11;;;;;;;12.20;9.50;;;15.10;85.50;;;;;;5038126;28;20037;-64
2022/09/24 08:18:38;;;;;;;12.75;10.02;;;15.10;85.50;;;;;;5044792;28;20079;-64
2022/09/24 08:21:09;;;;;;;10.25;8.38;;;15.10;85.50;;;;;;5041459;28;20041;-65
2022/09/24 08:23:35;;;;;;;9.52;7.45;;;15.10;85.90;;;;;;5039486;28;20044;-65
2022/09/24 08:26:02;;;;;;;9.40;7.63;;;15.20;85.40;;;;;;5040660;28;20519;-65
2022/09/24 08:28:27;;;;;;;9.82;7.80;;;15.30;85.30;;;;;;5040152;28;20021;-64
2022/09/24 08:30:58;;;;;;;10.18;8.25;;;15.30;85.20;;;;;;5045875;28;20017;-65
2022/09/24 08:33:23;;;;;;;11.43;8.50;;;15.30;85.00;;;;;;5050255;28;20086;-65
2022/09/24 08:35:49;;;;;;;9.23;7.28;;;15.30;85.10;;;;;;5046223;28;20021;-65
2022/09/24 08:38:15;;;;;;;10.60;7.72;;;15.30;85.00;;;;;;5047638;28;20395;-65
2022/09/24 08:41:00;;;;;;;12.48;10.27;;;15.30;85.00;;;;;;5048964;28;20024;-65
2022/09/24 08:43:47;;;;;;;20.38;16.17;;;15.30;85.00;;;;;;5042092;28;20031;-65
2022/09/24 08:49:11;;;;;;;12.98;10.82;;;15.30;85.10;;;;;;5047897;28;20052;-64
2022/09/24 08:52:42;;;;;;;14.35;12.50;;;15.30;85.10;;;;;;5044975;28;20414;-64
2022/09/24 08:55:21;;;;;;;13.52;12.13;;;15.30;85.10;;;;;;5017098;28;20037;-65
2022/09/24 08:58:09;;;;;;;14.10;10.82;;;15.30;85.00;;;;;;5020109;28;20067;-65
2022/09/24 09:00:44;;;;;;;11.05;9.55;;;15.30;85.00;;;;;;5002205;28;20106;-65
2022/09/24 09:03:26;;;;;;;14.60;12.05;;;15.30;85.10;;;;;;5045224;28;20119;-67
2022/09/24 09:05:58;;;;;;;15.27;12.60;;;15.40;85.00;;;;;;5042470;28;20407;-65
2022/09/24 09:08:56;;;;;;;15.73;12.40;;;15.40;85.00;;;;;;5039711;28;20434;-66
2022/09/24 09:11:27;;;;;;;14.43;12.45;;;15.40;84.90;;;;;;5045944;28;20049;-65
2022/09/24 09:14:39;;;;;;;10.88;8.75;;;15.40;84.90;;;;;;5047441;28;21409;-65
2022/09/24 09:17:15;;;;;;;11.45;8.77;;;15.30;85.00;;;;;;5041822;28;20495;-65
2022/09/24 09:19:43;;;;;;;12.32;10.48;;;15.40;85.10;;;;;;5046598;28;20098;-65
2022/09/24 09:22:14;;;;;;;11.10;9.48;;;15.40;85.10;;;;;;5047385;28;20028;-65
2022/09/24 09:24:47;;;;;;;12.63;10.77;;;15.30;85.20;;;;;;5040342;28;20086;-65
2022/09/24 09:27:15;;;;;;;15.90;14.30;;;15.30;85.80;;;;;;5040871;28;20590;-65
2022/09/24 09:29:43;;;;;;;9.93;8.88;;;15.30;85.20;;;;;;5044620;28;20028;-65
2022/09/24 09:32:29;;;;;;;13.50;12.10;;;15.40;85.20;;;;;;5047579;28;20496;-63
2022/09/24 09:35:18;;;;;;;14.10;11.85;;;15.40;85.30;;;;;;5046624;28;20024;-64
2022/09/24 09:38:18;;;;;;;11.55;10.35;;;15.30;85.30;;;;;;5047233;28;20036;-65
2022/09/24 09:41:05;;;;;;;7.03;6.25;;;15.30;85.50;;;;;;5046536;28;20075;-65
2022/09/24 09:43:31;;;;;;;8.68;7.72;;;15.30;85.40;;;;;;5045893;28;20099;-65
2022/09/24 09:46:16;;;;;;;9.18;8.07;;;15.40;85.40;;;;;;5044321;28;20839;-65
2022/09/24 09:48:55;;;;;;;11.02;9.82;;;15.50;85.20;;;;;;5042480;28;20033;-66
2022/09/24 09:51:24;;;;;;;10.48;9.38;;;15.40;85.10;;;;;;5042462;28;20103;-65
2022/09/24 09:54:03;;;;;;;10.88;8.50;;;15.40;85.30;;;;;;5041567;28;20061;-65
2022/09/24 09:56:40;;;;;;;13.95;12.07;;;15.40;85.20;;;;;;5041545;28;20036;-65
2022/09/24 09:59:09;;;;;;;11.48;10.27;;;15.30;85.20;;;;;;5042254;28;20029;-64
2022/09/24 10:01:39;;;;;;;10.35;8.48;;;15.30;85.30;;;;;;5044138;28;20029;-65
2022/09/24 10:04:06;;;;;;;8.48;7.57;;;15.30;85.40;;;;;;5043820;28;20044;-64
2022/09/24 10:06:34;;;;;;;9.85;8.52;;;15.40;85.50;;;;;;5043253;28;20024;-64
2022/09/24 10:09:26;;;;;;;14.45;13.10;;;15.40;85.50;;;;;;5042933;28;20640;-64
2022/09/24 10:11:51;;;;;;;9.52;7.63;;;15.40;85.30;;;;;;5041307;28;20124;-65
2022/09/24 10:14:19;;;;;;;7.57;6.10;;;15.50;85.30;;;;;;5045032;28;20166;-64
2022/09/24 10:16:51;;;;;;;8.57;7.10;;;15.50;85.20;;;;;;5042141;28;20535;-65
2022/09/24 10:19:23;;;;;;;8.90;6.50;;;15.50;85.20;;;;;;5041293;28;20064;-65
2022/09/24 10:21:52;;;;;;;9.60;7.80;;;15.60;85.20;;;;;;5039167;28;20029;-65
2022/09/24 10:24:21;;;;;;;7.72;6.50;;;15.60;85.10;;;;;;5041221;28;20549;-64
2022/09/24 10:26:47;;;;;;;8.10;7.13;;;15.60;85.10;;;;;;5042251;28;20020;-65
2022/09/24 10:32:20;;;;;;;8.50;6.78;;;15.70;85.00;;;;;;5041354;28;20468;-64
2022/09/24 10:35:00;;;;;;;9.63;7.82;;;15.70;84.80;;;;;;5040279;28;20039;-65
2022/09/24 10:37:27;;;;;;;8.68;7.22;;;15.60;84.80;;;;;;5045422;28;20032;-65
2022/09/24 10:40:00;;;;;;;10.55;6.57;;;15.70;84.80;;;;;;5044612;28;20033;-65
2022/09/24 10:42:28;;;;;;;7.68;6.68;;;15.70;84.80;;;;;;5046696;28;20039;-65
2022/09/24 10:44:57;;;;;;;8.88;7.47;;;15.70;84.70;;;;;;5046636;28;20067;-65
2022/09/24 10:47:37;;;;;;;9.70;8.23;;;15.70;84.60;;;;;;5044392;28;20087;-65
2022/09/24 10:50:17;;;;;;;8.40;7.03;;;15.70;84.60;;;;;;5042436;28;20028;-64
2022/09/24 10:53:11;;;;;;;7.47;6.22;;;15.70;84.60;;;;;;5038527;28;20033;-64
2022/09/24 10:55:56;;;;;;;6.63;5.63;;;15.70;84.60;;;;;;5034378;28;20045;-65
2022/09/24 10:58:52;;;;;;;8.15;7.10;;;15.70;84.50;;;;;;5039309;28;20029;-65
2022/09/24 11:01:38;;;;;;;8.70;7.13;;;15.70;84.50;;;;;;5040531;28;20037;-64
2022/09/24 11:04:17;;;;;;;10.60;8.73;;;15.70;84.70;;;;;;5040485;28;20022;-64
2022/09/24 11:07:13;;;;;;;9.20;7.80;;;15.70;84.60;;;;;;5039755;28;20025;-65
2022/09/24 11:10:10;;;;;;;10.70;8.88;;;15.70;84.60;;;;;;5041979;28;20024;-65
2022/09/24 11:12:50;;;;;;;9.95;7.90;;;15.70;84.70;;;;;;5039357;28;20037;-65
2022/09/24 11:15:31;;;;;;;9.18;7.38;;;15.60;84.80;;;;;;5036650;28;20598;-64
2022/09/24 11:18:24;;;;;;;9.45;7.97;;;15.60;84.90;;;;;;5045479;28;20084;-65
2022/09/24 11:21:13;;;;;;;8.90;6.82;;;15.60;84.90;;;;;;5043077;28;20029;-65
2022/09/24 11:24:07;;;;;;;9.77;7.53;;;15.70;85.50;;;;;;5039820;28;20483;-65
2022/09/24 11:26:48;;;;;;;9.35;7.03;;;15.70;84.90;;;;;;5038211;28;20029;-64
2022/09/24 11:29:21;;;;;;;7.13;6.35;;;15.70;85.40;;;;;;5041168;28;20037;-64
2022/09/24 11:31:50;;;;;;;8.25;7.15;;;15.80;84.80;;;;;;5042782;28;20029;-65
2022/09/24 11:34:28;;;;;;;7.93;6.57;;;15.80;84.80;;;;;;5043445;28;20052;-65
2022/09/24 11:37:11;;;;;;;9.35;7.15;;;15.80;84.80;;;;;;5048556;28;20104;-65
2022/09/24 11:39:40;;;;;;;8.82;7.55;;;15.90;84.80;;;;;;5041124;28;20488;-65
2022/09/24 11:42:21;;;;;;;10.90;8.60;;;15.80;84.60;;;;;;5043193;28;20087;-65
2022/09/24 11:45:05;;;;;;;9.77;8.15;;;15.90;84.70;;;;;;5040881;28;20029;-65
2022/09/24 11:47:54;;;;;;;9.38;7.47;;;15.80;84.60;;;;;;5046437;28;20033;-65
2022/09/24 11:50:30;;;;;;;8.98;7.13;;;15.80;84.70;;;;;;5040123;28;20029;-65
2022/09/24 11:53:03;;;;;;;8.68;6.97;;;15.80;84.70;;;;;;5035124;28;20029;-65
2022/09/24 11:55:45;;;;;;;10.38;8.55;;;15.80;84.60;;;;;;5037784;28;20037;-65
2022/09/24 11:58:39;;;;;;;9.88;7.10;;;15.90;85.20;;;;;;5038766;28;20029;-65
2022/09/24 12:01:22;;;;;;;8.20;6.45;;;15.80;84.60;;;;;;5042001;28;20037;-66
2022/09/24 12:04:09;;;;;;;7.28;6.47;;;15.90;84.60;;;;;;5038060;28;20117;-65
2022/09/24 12:06:42;;;;;;;7.63;6.72;;;15.90;84.50;;;;;;5036576;28;20134;-66
2022/09/24 12:09:07;;;;;;;7.80;6.78;;;15.90;84.40;;;;;;5044330;28;20025;-66
2022/09/24 12:11:40;;;;;;;7.45;6.40;;;15.90;84.40;;;;;;5046214;28;20533;-66
2022/09/24 12:14:22;;;;;;;8.57;6.93;;;15.90;84.30;;;;;;5045056;28;20033;-65
2022/09/24 12:16:55;;;;;;;8.38;7.00;;;16.00;84.30;;;;;;5040721;28;20025;-65
2022/09/24 12:19:29;;;;;;;7.93;6.63;;;16.00;84.20;;;;;;5040285;28;20479;-65
2022/09/24 12:21:57;;;;;;;8.80;6.78;;;16.00;84.10;;;;;;5041319;28;20480;-66
2022/09/24 12:24:34;;;;;;;8.93;6.55;;;16.00;84.10;;;;;;5038285;28;20559;-65
2022/09/24 12:27:06;;;;;;;7.35;6.22;;;16.10;84.00;;;;;;5035057;28;20033;-66
2022/09/24 12:32:53;;;;;;;8.70;6.85;;;16.10;83.80;;;;;;5037996;28;20044;-65
2022/09/24 12:35:41;;;;;;;8.93;8.02;;;16.10;83.70;;;;;;5041239;28;20071;-66
2022/09/24 12:38:15;;;;;;;7.90;7.05;;;16.20;83.70;;;;;;5042154;28;20368;-65
2022/09/24 12:41:10;;;;;;;7.40;6.60;;;16.20;83.60;;;;;;5043716;28;20029;-65
2022/09/24 12:43:43;;;;;;;9.02;7.30;;;16.20;83.70;;;;;;5039778;28;20029;-65
2022/09/24 12:46:18;;;;;;;9.73;8.65;;;16.20;83.50;;;;;;5043190;28;20516;-65
2022/09/24 12:48:45;;;;;;;19.63;17.80;;;16.20;83.40;;;;;;5045089;28;20037;-66
2022/09/24 12:51:13;;;;;;;12.65;11.55;;;16.20;83.40;;;;;;5043265;28;20033;-65
2022/09/24 12:53:42;;;;;;;18.25;16.48;;;16.20;83.40;;;;;;5037906;28;20033;-66
2022/09/24 12:56:10;;;;;;;15.00;13.60;;;16.20;83.40;;;;;;5039918;28;20042;-66
2022/09/24 12:58:43;;;;;;;11.35;10.23;;;16.30;83.50;;;;;;5045278;28;20033;-67
2022/09/24 13:01:25;;;;;;;11.55;10.45;;;16.30;83.40;;;;;;5038068;28;20013;-67
2022/09/24 13:04:09;;;;;;;;;;;16.30;83.30;;;;;;5048922;28;20035;-66
2022/09/24 13:06:36;;;;;;;9.07;7.78;;;16.30;83.10;;;;;;5049544;28;19915;-66
2022/09/24 13:09:22;;;;;;;10.07;9.02;;;16.30;83.30;;;;;;5048319;28;20021;-66
2022/09/24 13:11:47;;;;;;;9.57;7.93;;;16.30;83.50;;;;;;5052820;28;20147;-66